createdAt,value
2022-12-29T00:04:11.377Z,102103.38
2022-12-29T00:09:15.389Z,102098.16
2022-12-29T00:14:32.483Z,102112.97
2022-12-29T00:19:48.697Z,102113.03
2022-12-29T00:25:06.509Z,102110.47
2022-12-29T00:30:27.239Z,102114.03
2022-12-29T00:35:29.661Z,102116.66
2022-12-29T00:40:47.175Z,102108.84
2022-12-29T00:45:46.903Z,102111.47
2022-12-29T00:50:45.773Z,102107.16
2022-12-29T00:55:46.813Z,102111.50
2022-12-29T01:00:45.671Z,102100.16
2022-12-29T01:05:45.246Z,102094.09
2022-12-29T01:10:46.754Z,102105.38
2022-12-29T01:15:52.069Z,102085.38
2022-12-29T01:20:51.067Z,102072.34
2022-12-29T01:25:51.266Z,102071.50
2022-12-29T01:30:50.174Z,102068.03
2022-12-29T01:35:48.956Z,102068.03
2022-12-29T01:40:48.295Z,102069.78
2022-12-29T01:45:54.479Z,102068.97
2022-12-29T01:50:55.460Z,102059.47
2022-12-29T01:55:57.843Z,102044.72
2022-12-29T02:00:58.117Z,102043.00
2022-12-29T02:06:01.709Z,102055.16
2022-12-29T02:11:03.011Z,102050.84
2022-12-29T02:16:21.382Z,102048.25
2022-12-29T02:21:52.073Z,102039.59
2022-12-29T02:27:23.536Z,102040.72
2022-12-29T02:32:29.240Z,102038.13
2022-12-29T02:37:36.492Z,102024.25
2022-12-29T02:42:39.227Z,102016.44
2022-12-29T02:47:44.308Z,102013.81
2022-12-29T02:52:48.625Z,102023.38
2022-12-29T02:57:47.447Z,102019.94
2022-12-29T03:03:18.866Z,102020.84
2022-12-29T03:08:25.544Z,102021.84
2022-12-29T03:13:47.861Z,102018.41
2022-12-29T03:18:58.599Z,102019.28
2022-12-29T03:23:57.711Z,102020.16
2022-12-29T03:29:00.224Z,102034.94
2022-12-29T03:34:05.155Z,102043.59
2022-12-29T03:39:12.807Z,102040.22
2022-12-29T03:44:12.573Z,102037.66
2022-12-29T03:49:13.284Z,102029.81
2022-12-29T03:54:12.096Z,102032.44
2022-12-29T03:59:10.912Z,102035.91
2022-12-29T04:04:13.610Z,102032.44
2022-12-29T04:09:13.428Z,102042.00
2022-12-29T04:14:17.158Z,102041.09
2022-12-29T04:19:18.733Z,102032.41
2022-12-29T04:24:19.737Z,102040.25
2022-12-29T04:29:21.696Z,102053.28
2022-12-29T04:34:43.686Z,102056.75
2022-12-29T04:39:42.763Z,102051.53
2022-12-29T04:44:45.207Z,102050.66
2022-12-29T04:50:06.376Z,102052.44
2022-12-29T04:55:11.996Z,102056.75
2022-12-29T05:00:13.666Z,102055.00
2022-12-29T05:05:14.228Z,102060.22
2022-12-29T05:10:15.600Z,102068.88
2022-12-29T05:15:15.666Z,102060.22
2022-12-29T05:20:17.217Z,102070.63
2022-12-29T05:25:16.319Z,102085.34
2022-12-29T05:30:26.235Z,102073.19
2022-12-29T05:35:26.979Z,102069.72
2022-12-29T05:40:25.923Z,102069.72
2022-12-29T05:45:28.492Z,102059.38
2022-12-29T05:50:37.089Z,102055.03
2022-12-29T05:55:48.558Z,102047.22
2022-12-29T06:00:48.703Z,102052.41
2022-12-29T06:05:49.214Z,102051.56
2022-12-29T06:10:49.179Z,102048.06
2022-12-29T06:15:50.965Z,102047.22
2022-12-29T06:20:52.659Z,102044.63
2022-12-29T06:25:51.849Z,102048.97
2022-12-29T06:30:50.736Z,102057.63
2022-12-29T06:35:52.171Z,102072.38
2022-12-29T06:40:51.044Z,102060.22
2022-12-29T06:45:52.589Z,102068.03
2022-12-29T06:50:52.778Z,102080.19
2022-12-29T06:55:51.623Z,102090.56
2022-12-29T07:00:50.666Z,102108.75
2022-12-29T07:05:49.505Z,102114.84
2022-12-29T07:10:49.692Z,102103.59
2022-12-29T07:15:48.478Z,102115.72
2022-12-29T07:20:47.244Z,102105.31
2022-12-29T07:25:45.927Z,102114.84
2022-12-29T07:30:48.477Z,102119.19
2022-12-29T07:35:47.247Z,102112.25
2022-12-29T07:40:46.188Z,102107.06
2022-12-29T07:45:46.373Z,102114.88
2022-12-29T07:50:45.110Z,102116.63
2022-12-29T07:55:44.318Z,102117.47
2022-12-29T08:00:43.063Z,102107.94
2022-12-29T08:05:43.176Z,102105.31
2022-12-29T08:10:41.938Z,102107.91
2022-12-29T08:15:40.660Z,102111.34
2022-12-29T08:20:39.458Z,102116.53
2022-12-29T08:25:39.625Z,102115.69
2022-12-29T08:30:38.686Z,102111.38
2022-12-29T08:35:37.482Z,102101.84
2022-12-29T08:40:36.392Z,102103.56
2022-12-29T08:45:36.532Z,102100.00
2022-12-29T08:50:35.248Z,102094.75
2022-12-29T08:55:33.999Z,102097.31
2022-12-29T09:00:33.859Z,102093.88
2022-12-29T09:05:34.401Z,102096.31
2022-12-29T09:10:33.570Z,102079.56
2022-12-29T09:15:32.347Z,102089.50
2022-12-29T09:20:31.326Z,102079.25
2022-12-29T09:25:31.943Z,102070.25
2022-12-29T09:30:30.895Z,102049.94
2022-12-29T09:35:29.669Z,102052.38
2022-12-29T09:40:32.777Z,102045.19
2022-12-29T09:45:37.419Z,102048.88
2022-12-29T09:50:39.392Z,102032.19
2022-12-29T09:55:48.121Z,102032.44
2022-12-29T10:00:56.390Z,102024.91
2022-12-29T10:06:03.129Z,102016.88
2022-12-29T10:11:13.001Z,102014.75
2022-12-29T10:16:17.532Z,102021.50
2022-12-29T10:21:24.907Z,102012.91
2022-12-29T10:26:29.067Z,102006.00
2022-12-29T10:31:36.193Z,101999.22
2022-12-29T10:36:40.997Z,101999.28
2022-12-29T10:41:46.876Z,101989.16
2022-12-29T10:46:49.881Z,101984.66
2022-12-29T10:51:53.079Z,101988.91
2022-12-29T10:56:58.491Z,101978.25
2022-12-29T11:02:04.301Z,101975.75
2022-12-29T11:07:04.384Z,101971.94
2022-12-29T11:12:21.588Z,101967.41
2022-12-29T11:17:21.201Z,101954.13
2022-12-29T11:22:24.762Z,101953.75
2022-12-29T11:27:26.231Z,101943.78
2022-12-29T11:32:29.087Z,101941.06
2022-12-29T11:37:32.784Z,101936.56
2022-12-29T11:42:38.331Z,101920.81
2022-12-29T11:47:37.602Z,101923.63
2022-12-29T11:52:40.559Z,101917.16
2022-12-29T11:57:44.552Z,101917.50
2022-12-29T12:02:48.035Z,101913.38
2022-12-29T12:07:48.875Z,101910.69
2022-12-29T12:12:53.795Z,101909.56
2022-12-29T12:17:57.233Z,101892.59
2022-12-29T12:23:09.616Z,101893.66
2022-12-29T12:28:17.223Z,101882.47
2022-12-29T12:33:24.645Z,101885.19
2022-12-29T12:38:34.386Z,101891.50
2022-12-29T12:43:42.506Z,101883.66
2022-12-29T12:48:57.375Z,101883.91
2022-12-29T12:54:10.700Z,101875.31
2022-12-29T12:59:26.250Z,101872.19
2022-12-29T13:04:48.613Z,101874.81
2022-12-29T13:09:57.664Z,101874.06
2022-12-29T13:15:10.921Z,101863.19
2022-12-29T13:20:23.258Z,101872.97
2022-12-29T13:25:30.252Z,101870.13
2022-12-29T13:30:39.243Z,101870.44
2022-12-29T13:35:53.423Z,101863.81
2022-12-29T13:40:55.950Z,101859.28
2022-12-29T13:46:01.143Z,101865.97
2022-12-29T13:51:03.257Z,101864.06
2022-12-29T13:56:08.870Z,101866.16
2022-12-29T14:01:17.005Z,101875.09
2022-12-29T14:06:25.450Z,101866.81
2022-12-29T14:11:30.892Z,101880.50
2022-12-29T14:16:34.328Z,101875.47
2022-12-29T14:21:35.178Z,101874.13
2022-12-29T14:26:38.364Z,101878.75
2022-12-29T14:31:42.930Z,101874.47
2022-12-29T14:36:43.975Z,101878.41
2022-12-29T14:41:42.915Z,101869.00
2022-12-29T14:46:57.648Z,101878.06
2022-12-29T14:52:06.582Z,101872.38
2022-12-29T14:57:09.116Z,101866.75
2022-12-29T15:02:18.851Z,101872.38
2022-12-29T15:07:21.691Z,101867.09
2022-12-29T15:12:31.213Z,101872.41
2022-12-29T15:17:34.046Z,101880.88
2022-12-29T15:22:33.083Z,101879.34
2022-12-29T15:27:32.261Z,101869.94
2022-12-29T15:32:42.197Z,101881.59
2022-12-29T15:37:40.944Z,101875.59
2022-12-29T15:42:56.933Z,101873.13
2022-12-29T15:47:58.856Z,101874.88
2022-12-29T15:53:01.530Z,101869.47
2022-12-29T15:58:03.015Z,101871.09
2022-12-29T16:03:05.615Z,101871.72
2022-12-29T16:08:05.321Z,101865.44
2022-12-29T16:13:06.841Z,101866.81
2022-12-29T16:18:07.285Z,101852.53
2022-12-29T16:23:06.087Z,101864.44
2022-12-29T16:28:16.664Z,101863.09
2022-12-29T16:33:38.733Z,101849.72
2022-12-29T16:38:37.587Z,101864.34
2022-12-29T16:43:42.977Z,101854.13
2022-12-29T16:48:50.368Z,101857.31
2022-12-29T16:53:54.311Z,101852.16
2022-12-29T16:58:59.882Z,101847.22
2022-12-29T17:04:07.470Z,101838.81
2022-12-29T17:09:19.859Z,101834.84
2022-12-29T17:14:23.368Z,101843.28
2022-12-29T17:19:30.980Z,101834.88
2022-12-29T17:24:30.135Z,101841.31
2022-12-29T17:29:34.732Z,101847.53
2022-12-29T17:34:35.391Z,101839.94
2022-12-29T17:39:34.193Z,101836.50
2022-12-29T17:44:32.932Z,101841.91
2022-12-29T17:49:31.685Z,101843.69
2022-12-29T17:54:32.781Z,101844.59
2022-12-29T17:59:31.554Z,101841.19
2022-12-29T18:04:30.376Z,101831.78
2022-12-29T18:09:29.115Z,101837.88
2022-12-29T18:14:29.419Z,101848.31
2022-12-29T18:19:33.942Z,101838.00
2022-12-29T18:24:34.694Z,101835.72
2022-12-29T18:29:35.680Z,101836.78
2022-12-29T18:34:34.406Z,101844.91
2022-12-29T18:39:33.202Z,101850.41
2022-12-29T18:44:32.074Z,101846.91
2022-12-29T18:49:32.199Z,101854.84
2022-12-29T18:54:32.867Z,101852.41
2022-12-29T18:59:31.616Z,101854.19
2022-12-29T19:04:31.989Z,101846.50
2022-12-29T19:09:30.695Z,101855.53
2022-12-29T19:14:29.609Z,101857.44
2022-12-29T19:19:28.396Z,101849.69
2022-12-29T19:24:28.645Z,101863.91
2022-12-29T19:29:27.475Z,101859.63
2022-12-29T19:34:26.387Z,101856.28
2022-12-29T19:39:25.296Z,101858.88
2022-12-29T19:44:28.830Z,101854.50
2022-12-29T19:49:32.119Z,101847.50
2022-12-29T19:54:32.754Z,101849.28
2022-12-29T19:59:33.012Z,101835.44
2022-12-29T20:04:35.009Z,101839.00
2022-12-29T20:09:34.043Z,101836.47
2022-12-29T20:14:35.959Z,101827.91
2022-12-29T20:19:39.586Z,101817.53
2022-12-29T20:24:46.763Z,101816.69
2022-12-29T20:29:52.919Z,101811.53
2022-12-29T20:34:56.400Z,101816.06
2022-12-29T20:39:56.410Z,101820.56
2022-12-29T20:45:00.124Z,101816.34
2022-12-29T20:49:58.951Z,101807.66
2022-12-29T20:54:59.412Z,101815.06
2022-12-29T21:00:07.520Z,101822.03
2022-12-29T21:05:25.811Z,101813.28
2022-12-29T21:10:27.540Z,101814.94
2022-12-29T21:15:30.789Z,101821.00
2022-12-29T21:20:32.240Z,101820.06
2022-12-29T21:25:37.340Z,101829.81
2022-12-29T21:30:39.349Z,101824.66
2022-12-29T21:35:41.461Z,101828.16
2022-12-29T21:40:43.337Z,101835.38
2022-12-29T21:45:51.970Z,101822.38
2022-12-29T21:51:14.958Z,101823.28
2022-12-29T21:56:17.928Z,101822.38
2022-12-29T22:01:35.821Z,101812.78
2022-12-29T22:06:54.118Z,101809.31
2022-12-29T22:12:10.174Z,101808.41
2022-12-29T22:17:14.161Z,101801.38
2022-12-29T22:22:13.625Z,101783.91
2022-12-29T22:27:13.224Z,101777.75
2022-12-29T22:32:13.440Z,101771.56
2022-12-29T22:37:12.223Z,101773.22
2022-12-29T22:42:11.211Z,101759.28
2022-12-29T22:47:09.985Z,101766.56
2022-12-29T22:52:10.211Z,101754.38
2022-12-29T22:57:08.984Z,101761.31
2022-12-29T23:02:08.011Z,101750.00
2022-12-29T23:07:07.399Z,101745.69
2022-12-29T23:12:07.857Z,101736.97
2022-12-29T23:17:06.588Z,101747.44
2022-12-29T23:22:05.474Z,101751.75
2022-12-29T23:27:04.319Z,101760.59
2022-12-29T23:32:04.745Z,101754.59
2022-12-29T23:37:03.527Z,101750.31
2022-12-29T23:42:02.312Z,101752.09
2022-12-29T23:47:01.352Z,101752.09
2022-12-29T23:52:01.622Z,101753.06
2022-12-29T23:57:00.453Z,101750.47
